createdAt,value
2018-04-06T00:02:05.072Z,10.93
2018-04-06T00:04:33.988Z,13.40
2018-04-06T00:07:02.951Z,12.20
2018-04-06T00:09:32.519Z,11.70
2018-04-06T00:12:03.090Z,12.50
2018-04-06T00:14:31.984Z,11.23
2018-04-06T00:17:01.268Z,13.50
2018-04-06T00:19:30.170Z,14.13
2018-04-06T00:21:59.113Z,14.00
2018-04-06T00:24:28.493Z,15.50
2018-04-06T00:26:57.390Z,17.90
2018-04-06T00:29:26.259Z,11.63
2018-04-06T00:31:55.719Z,16.97
2018-04-06T00:34:25.610Z,31.03
2018-04-06T00:36:54.839Z,22.90
2018-04-06T00:39:25.476Z,21.03
2018-04-06T00:41:55.080Z,13.20
2018-04-06T00:44:23.931Z,12.90
2018-04-06T00:46:52.776Z,20.20
2018-04-06T00:49:21.670Z,17.40
2018-04-06T00:51:50.897Z,20.77
2018-04-06T00:54:19.880Z,15.43
2018-04-06T00:56:48.831Z,16.00
2018-04-06T00:59:18.231Z,17.30
2018-04-06T01:01:47.209Z,17.57
2018-04-06T01:04:16.096Z,13.23
2018-04-06T01:06:45.441Z,23.93
2018-04-06T01:09:14.434Z,12.93
2018-04-06T01:11:43.392Z,7.90
2018-04-06T01:14:12.741Z,11.53
2018-04-06T01:16:41.644Z,13.60
2018-04-06T01:19:10.840Z,16.70
2018-04-06T01:21:40.019Z,12.40
2018-04-06T01:24:08.868Z,9.43
2018-04-06T01:26:37.790Z,13.17
2018-04-06T01:29:06.656Z,17.03
2018-04-06T01:31:35.588Z,12.90
2018-04-06T01:34:05.363Z,22.27
2018-04-06T01:36:34.428Z,11.33
2018-04-06T01:39:03.375Z,12.90
2018-04-06T01:41:32.637Z,9.23
2018-04-06T01:44:01.544Z,10.90
2018-04-06T01:46:30.382Z,10.10
2018-04-06T01:48:59.603Z,9.20
2018-04-06T01:51:28.351Z,16.00
2018-04-06T01:53:57.047Z,17.77
2018-04-06T01:56:26.190Z,11.43
2018-04-06T01:58:54.876Z,9.50
2018-04-06T02:01:23.575Z,10.10
2018-04-06T02:03:52.924Z,9.57
2018-04-06T02:06:21.790Z,9.23
2018-04-06T02:08:50.635Z,15.70
2018-04-06T02:11:20.020Z,12.53
2018-04-06T02:13:48.875Z,9.33
2018-04-06T02:16:17.731Z,9.33
2018-04-06T02:18:46.973Z,13.80
2018-04-06T02:21:15.812Z,8.50
2018-04-06T02:23:44.575Z,8.80
2018-04-06T02:26:13.955Z,5.60
2018-04-06T02:28:42.650Z,10.70
2018-04-06T02:31:11.355Z,10.03
2018-04-06T02:33:40.839Z,9.03
2018-04-06T02:36:09.583Z,8.20
2018-04-06T02:38:38.335Z,6.40
2018-04-06T02:41:07.482Z,13.40
2018-04-06T02:43:36.315Z,10.83
2018-04-06T02:46:05.579Z,10.47
2018-04-06T02:48:34.831Z,15.00
2018-04-06T02:51:03.565Z,11.90
2018-04-06T02:53:32.281Z,13.27
2018-04-06T02:56:01.360Z,14.00
2018-04-06T02:58:30.133Z,6.60
2018-04-06T03:00:58.840Z,9.30
2018-04-06T03:03:28.039Z,7.93
2018-04-06T03:05:56.755Z,5.10
2018-04-06T03:08:25.446Z,13.20
2018-04-06T03:10:54.588Z,9.83
2018-04-06T03:13:23.276Z,7.20
2018-04-06T03:15:52.018Z,14.37
2018-04-06T03:18:21.038Z,7.93
2018-04-06T03:20:49.702Z,9.40
2018-04-06T03:23:18.562Z,8.73
2018-04-06T03:25:47.705Z,7.47
2018-04-06T03:28:16.409Z,11.93
2018-04-06T03:30:45.090Z,20.23
2018-04-06T03:33:14.228Z,8.43
2018-04-06T03:35:42.935Z,12.70
2018-04-06T03:38:11.631Z,9.40
2018-04-06T03:40:40.936Z,10.10
2018-04-06T03:43:09.663Z,13.47
2018-04-06T03:45:38.376Z,11.90
2018-04-06T03:48:07.525Z,9.40
2018-04-06T03:50:36.364Z,9.90
2018-04-06T03:53:05.105Z,13.57
2018-04-06T03:55:35.466Z,5.33
2018-04-06T03:58:04.815Z,13.43
2018-04-06T04:00:33.551Z,13.23
2018-04-06T04:03:02.757Z,14.60
2018-04-06T04:05:31.466Z,8.17
2018-04-06T04:08:00.228Z,19.77
2018-04-06T04:10:29.302Z,10.27
2018-04-06T04:12:58.048Z,14.50
2018-04-06T04:15:26.778Z,9.33
2018-04-06T04:17:55.936Z,14.23
2018-04-06T04:20:24.663Z,11.53
2018-04-06T04:22:53.380Z,7.90
2018-04-06T04:25:22.454Z,12.60
2018-04-06T04:27:51.165Z,12.20
2018-04-06T04:30:19.886Z,14.43
2018-04-06T04:32:47.814Z,12.10
2018-04-06T04:35:16.523Z,9.00
2018-04-06T04:37:45.232Z,16.80
2018-04-06T04:40:15.441Z,9.27
2018-04-06T04:42:44.155Z,10.83
2018-04-06T04:45:43.327Z,17.20
2018-04-06T04:48:12.448Z,18.30
2018-04-06T04:50:41.220Z,12.33
2018-04-06T04:53:09.915Z,11.13
2018-04-06T04:55:39.079Z,9.90
2018-04-06T04:58:07.843Z,14.93
2018-04-06T05:00:36.626Z,8.63
2018-04-06T05:03:05.663Z,15.57
2018-04-06T05:05:34.413Z,18.50
2018-04-06T05:08:03.651Z,12.60
2018-04-06T05:10:32.896Z,14.83
2018-04-06T05:13:01.914Z,12.67
2018-04-06T05:17:54.534Z,12.87
2018-04-06T05:20:23.258Z,15.70
2018-04-06T05:22:52.011Z,13.87
2018-04-06T05:25:21.047Z,16.63
2018-04-06T05:27:49.990Z,12.60
2018-04-06T05:30:18.835Z,17.20
2018-04-06T05:32:47.643Z,14.33
2018-04-06T05:35:16.422Z,8.13
2018-04-06T05:37:45.400Z,10.10
2018-04-06T05:40:14.595Z,14.20
2018-04-06T05:42:43.311Z,19.13
2018-04-06T05:45:12.051Z,13.03
2018-04-06T05:47:41.369Z,8.70
2018-04-06T05:50:10.097Z,14.50
2018-04-06T05:52:38.915Z,18.53
2018-04-06T05:55:07.911Z,14.40
2018-04-06T05:57:36.645Z,15.33
2018-04-06T06:00:06.418Z,8.67
2018-04-06T06:02:35.454Z,15.00
2018-04-06T06:05:04.364Z,10.60
2018-04-06T06:07:33.419Z,18.87
2018-04-06T06:10:03.640Z,10.63
2018-04-06T06:12:32.366Z,14.30
2018-04-06T06:15:01.720Z,17.63
2018-04-06T06:17:30.965Z,11.83
2018-04-06T06:19:59.710Z,16.80
2018-04-06T06:22:28.498Z,17.80
2018-04-06T06:25:00.506Z,16.00
2018-04-06T06:27:29.321Z,18.83
2018-04-06T06:29:58.006Z,13.97
2018-04-06T06:32:27.140Z,13.10
2018-04-06T06:34:55.816Z,15.23
2018-04-06T06:37:24.566Z,15.57
2018-04-06T06:39:53.466Z,22.50
2018-04-06T06:42:22.215Z,10.87
2018-04-06T06:44:51.081Z,12.83
2018-04-06T06:47:20.171Z,12.47
2018-04-06T06:49:48.933Z,12.93
2018-04-06T06:52:17.740Z,9.40
2018-04-06T06:54:46.507Z,13.00
2018-04-06T06:57:15.224Z,10.27
2018-04-06T06:59:45.321Z,9.00
2018-04-06T07:02:14.293Z,18.43
2018-04-06T07:04:43.691Z,28.90
2018-04-06T07:07:13.044Z,11.73
2018-04-06T07:09:42.118Z,11.00
2018-04-06T07:12:10.859Z,11.40
2018-04-06T07:14:40.366Z,15.73
2018-04-06T07:17:09.310Z,12.27
2018-04-06T07:19:38.126Z,11.33
2018-04-06T07:22:07.043Z,5.70
2018-04-06T07:24:35.925Z,7.33
2018-04-06T07:27:04.745Z,9.50
2018-04-06T07:29:33.840Z,4.63
2018-04-06T07:32:03.201Z,9.83
2018-04-06T07:34:31.946Z,12.50
2018-04-06T07:37:01.290Z,6.20
2018-04-06T07:39:30.159Z,5.90
2018-04-06T07:41:59.599Z,4.50
2018-04-06T07:44:28.358Z,3.37
2018-04-06T07:46:57.120Z,7.27
2018-04-06T07:49:26.331Z,5.97
2018-04-06T07:51:55.034Z,6.97
2018-04-06T07:54:23.726Z,5.77
2018-04-06T07:56:54.227Z,5.77
2018-04-06T07:59:22.990Z,13.87
2018-04-06T08:01:53.472Z,7.50
2018-04-06T08:04:22.220Z,7.33
2018-04-06T08:06:51.231Z,2.97
2018-04-06T08:09:19.978Z,5.50
2018-04-06T08:11:48.755Z,3.73
2018-04-06T08:14:17.781Z,7.63
2018-04-06T08:16:46.582Z,5.67
2018-04-06T08:19:15.311Z,5.03
2018-04-06T08:21:45.007Z,7.00
2018-04-06T08:24:14.160Z,5.70
2018-04-06T08:26:42.927Z,5.47
2018-04-06T08:29:11.638Z,5.23
2018-04-06T08:31:41.356Z,5.60
2018-04-06T08:34:10.270Z,7.77
2018-04-06T08:36:39.161Z,5.67
2018-04-06T08:39:08.467Z,7.40
2018-04-06T08:41:37.478Z,4.50
2018-04-06T08:44:06.593Z,8.53
2018-04-06T08:46:35.562Z,4.80
2018-04-06T08:49:04.514Z,3.73
2018-04-06T08:51:33.387Z,3.50
2018-04-06T08:54:03.265Z,3.80
2018-04-06T08:56:32.127Z,5.70
2018-04-06T08:59:01.171Z,4.53
2018-04-06T09:01:30.106Z,4.20
2018-04-06T09:03:59.073Z,5.30
2018-04-06T09:06:28.302Z,9.27
2018-04-06T09:08:57.302Z,10.20
2018-04-06T09:11:26.213Z,5.40
2018-04-06T09:13:55.599Z,12.60
2018-04-06T09:16:24.646Z,4.53
2018-04-06T09:18:54.385Z,9.30
2018-04-06T09:21:23.596Z,4.97
2018-04-06T09:23:52.693Z,3.00
2018-04-06T09:26:21.661Z,5.70
2018-04-06T09:28:50.673Z,5.30
2018-04-06T09:31:19.624Z,7.80
2018-04-06T09:33:48.974Z,3.37
2018-04-06T09:36:18.370Z,4.57
2018-04-06T09:38:48.349Z,6.50
2018-04-06T09:41:18.443Z,3.10
2018-04-06T09:43:48.717Z,2.50
2018-04-06T09:46:18.453Z,4.50
2018-04-06T09:48:49.379Z,9.00
2018-04-06T09:51:18.997Z,5.20
2018-04-06T09:53:48.758Z,4.87
2018-04-06T09:56:18.858Z,5.73
2018-04-06T09:58:48.190Z,4.57
2018-04-06T10:01:17.232Z,2.90
2018-04-06T10:03:46.429Z,6.03
2018-04-06T10:06:15.796Z,4.13
2018-04-06T10:08:45.956Z,6.50
2018-04-06T10:11:15.726Z,4.13
2018-04-06T10:13:45.185Z,4.00
2018-04-06T10:16:15.197Z,4.00
2018-04-06T10:18:45.098Z,4.17
2018-04-06T10:21:14.685Z,8.77
2018-04-06T10:23:44.141Z,7.77
2018-04-06T10:26:14.136Z,7.73
2018-04-06T10:28:43.943Z,10.13
2018-04-06T10:31:13.738Z,3.60
2018-04-06T10:33:43.239Z,6.57
2018-04-06T10:36:12.705Z,10.27
2018-04-06T10:38:42.253Z,7.90
2018-04-06T10:41:11.654Z,6.00
2018-04-06T10:43:40.654Z,6.00
2018-04-06T10:46:10.736Z,8.57
2018-04-06T10:48:40.386Z,4.30
2018-04-06T10:51:10.171Z,4.90
2018-04-06T10:53:40.269Z,7.10
2018-04-06T10:56:10.007Z,5.87
2018-04-06T10:58:39.994Z,3.70
2018-04-06T11:01:09.723Z,4.50
2018-04-06T11:03:39.606Z,4.73
2018-04-06T11:06:09.049Z,3.93
2018-04-06T11:08:39.010Z,5.70
2018-04-06T11:11:08.640Z,6.20
2018-04-06T11:13:38.698Z,3.63
2018-04-06T11:16:07.776Z,7.87
2018-04-06T11:18:37.197Z,5.20
2018-04-06T11:21:07.259Z,5.50
2018-04-06T11:23:37.214Z,4.63
2018-04-06T11:26:06.966Z,7.50
2018-04-06T11:28:37.231Z,4.47
2018-04-06T11:31:07.005Z,3.03
2018-04-06T11:33:37.346Z,3.37
2018-04-06T11:36:07.075Z,3.83
2018-04-06T11:38:36.820Z,2.83
2018-04-06T11:41:06.550Z,4.27
2018-04-06T11:43:35.950Z,3.60
2018-04-06T11:46:05.992Z,3.30
2018-04-06T11:48:35.745Z,4.20
2018-04-06T11:51:05.298Z,3.97
2018-04-06T11:53:35.119Z,4.23
2018-04-06T11:56:06.431Z,4.40
2018-04-06T11:58:35.950Z,5.10
2018-04-06T12:01:05.001Z,7.80
2018-04-06T12:03:34.207Z,6.70
2018-04-06T12:06:04.524Z,6.57
2018-04-06T12:08:33.392Z,4.50
2018-04-06T12:11:02.692Z,3.40
2018-04-06T12:13:31.586Z,3.20
2018-04-06T12:16:00.484Z,7.23
2018-04-06T12:18:29.385Z,4.07
2018-04-06T12:20:58.359Z,3.60
2018-04-06T12:23:27.574Z,3.60
2018-04-06T12:25:56.569Z,4.67
2018-04-06T12:28:25.565Z,3.53
2018-04-06T12:30:54.925Z,4.37
2018-04-06T12:33:23.831Z,8.30
2018-04-06T12:35:52.920Z,3.77
2018-04-06T12:38:22.117Z,3.40
2018-04-06T12:40:51.036Z,4.13
2018-04-06T12:43:19.933Z,16.83
2018-04-06T12:45:49.137Z,9.23
2018-04-06T12:48:18.032Z,5.17
2018-04-06T12:50:46.965Z,4.20
2018-04-06T12:53:16.238Z,4.40
2018-04-06T12:55:45.142Z,4.83
2018-04-06T12:58:14.099Z,4.30
2018-04-06T13:00:43.079Z,8.47
2018-04-06T13:03:12.103Z,11.10
2018-04-06T13:05:41.502Z,5.37
2018-04-06T13:08:10.474Z,4.63
2018-04-06T13:10:39.397Z,6.10
2018-04-06T13:13:08.651Z,4.87
2018-04-06T13:15:37.789Z,4.70
2018-04-06T13:18:06.962Z,4.30
2018-04-06T13:20:36.519Z,4.70
2018-04-06T13:23:06.225Z,5.83
2018-04-06T13:25:36.079Z,5.80
2018-04-06T13:28:06.973Z,7.20
2018-04-06T13:30:36.795Z,5.97
2018-04-06T13:33:06.650Z,7.33
2018-04-06T13:35:36.204Z,4.73
2018-04-06T13:38:06.426Z,5.83
2018-04-06T13:40:36.087Z,4.87
2018-04-06T13:43:05.571Z,8.43
2018-04-06T13:45:35.548Z,8.03
2018-04-06T13:48:06.727Z,21.30
2018-04-06T13:50:36.351Z,7.23
2018-04-06T13:53:06.077Z,4.53
2018-04-06T13:55:36.087Z,8.47
2018-04-06T13:58:07.033Z,5.40
2018-04-06T14:00:36.966Z,6.33
2018-04-06T14:03:06.705Z,5.83
2018-04-06T14:05:36.247Z,12.13
2018-04-06T14:08:06.547Z,9.17
2018-04-06T14:10:36.348Z,11.10
2018-04-06T14:13:06.221Z,6.23
2018-04-06T14:15:36.006Z,13.30
2018-04-06T14:18:06.395Z,7.97
2018-04-06T14:20:36.267Z,6.20
2018-04-06T14:23:06.408Z,7.10
2018-04-06T14:25:36.488Z,5.07
2018-04-06T14:28:07.118Z,16.13
2018-04-06T14:30:37.435Z,10.30
2018-04-06T14:33:07.176Z,7.90
2018-04-06T14:35:36.967Z,5.23
2018-04-06T14:38:07.393Z,5.43
2018-04-06T14:40:36.959Z,8.60
2018-04-06T14:43:06.902Z,6.70
2018-04-06T14:45:36.643Z,10.03
2018-04-06T14:48:06.986Z,5.50
2018-04-06T14:50:36.448Z,14.77
2018-04-06T14:53:06.305Z,13.97
2018-04-06T14:55:36.196Z,7.20
2018-04-06T14:58:07.843Z,7.50
2018-04-06T15:00:37.490Z,12.03
2018-04-06T15:03:07.282Z,8.50
2018-04-06T15:05:37.474Z,14.80
2018-04-06T15:08:07.315Z,8.53
2018-04-06T15:10:37.190Z,8.60
2018-04-06T15:13:07.244Z,17.43
2018-04-06T15:15:36.606Z,7.60
2018-04-06T15:18:06.369Z,12.90
2018-04-06T15:20:36.532Z,8.70
2018-04-06T15:23:05.934Z,6.20
2018-04-06T15:25:35.773Z,5.27
2018-04-06T15:28:07.098Z,13.63
2018-04-06T15:30:36.686Z,9.77
2018-04-06T15:33:06.852Z,6.30
2018-04-06T15:35:36.574Z,5.07
2018-04-06T15:38:07.884Z,10.10
2018-04-06T15:40:38.070Z,6.70
2018-04-06T15:43:08.803Z,6.00
2018-04-06T15:45:39.034Z,9.13
2018-04-06T15:48:08.922Z,7.50
2018-04-06T15:50:38.712Z,8.43
2018-04-06T15:53:08.158Z,5.23
2018-04-06T15:55:38.541Z,9.17
2018-04-06T15:58:08.176Z,15.33
2018-04-06T16:00:38.109Z,18.73
2018-04-06T16:03:07.905Z,16.00
2018-04-06T16:05:37.697Z,9.93
2018-04-06T16:08:07.584Z,8.00
2018-04-06T16:10:37.046Z,18.80
2018-04-06T16:13:06.904Z,7.10
2018-04-06T16:15:37.299Z,20.83
2018-04-06T16:18:07.195Z,10.17
2018-04-06T16:20:37.289Z,12.00
2018-04-06T16:23:07.218Z,8.60
2018-04-06T16:25:36.581Z,18.70
2018-04-06T16:28:06.764Z,6.03
2018-04-06T16:30:36.726Z,10.43
2018-04-06T16:33:06.087Z,6.80
2018-04-06T16:35:35.698Z,13.03
2018-04-06T16:41:38.192Z,5.67
2018-04-06T16:44:08.753Z,21.33
2018-04-06T16:46:39.298Z,11.43
2018-04-06T16:49:09.037Z,18.33
2018-04-06T16:51:39.348Z,12.70
2018-04-06T16:54:08.415Z,19.20
2018-04-06T16:56:37.949Z,9.93
2018-04-06T16:59:07.848Z,11.83
2018-04-06T17:01:38.644Z,14.30
2018-04-06T17:04:08.342Z,8.27
2018-04-06T17:06:38.566Z,14.40
2018-04-06T17:09:08.232Z,13.90
2018-04-06T17:11:38.049Z,24.57
2018-04-06T17:14:07.642Z,29.73
2018-04-06T17:16:37.577Z,23.03
2018-04-06T17:19:07.638Z,24.60
2018-04-06T17:21:38.132Z,22.10
2018-04-06T17:24:08.023Z,11.70
2018-04-06T17:26:38.451Z,9.07
2018-04-06T17:29:08.371Z,12.40
2018-04-06T17:31:38.147Z,17.03
2018-04-06T17:34:08.140Z,18.73
2018-04-06T17:36:37.762Z,24.60
2018-04-06T17:39:08.135Z,25.13
2018-04-06T17:41:38.786Z,46.73
2018-04-06T17:44:08.220Z,31.83
2018-04-06T17:46:38.532Z,31.97
2018-04-06T17:49:08.676Z,30.80
2018-04-06T17:51:38.295Z,18.23
2018-04-06T17:54:07.841Z,28.60
2018-04-06T17:56:37.236Z,32.07
2018-04-06T17:59:06.206Z,34.03
2018-04-06T18:01:36.533Z,39.73
2018-04-06T18:04:07.182Z,38.00
2018-04-06T18:06:37.124Z,22.27
2018-04-06T18:09:07.404Z,21.47
2018-04-06T18:11:37.314Z,25.63
2018-04-06T18:14:06.914Z,27.60
2018-04-06T18:16:37.276Z,75.37
2018-04-06T18:19:06.835Z,47.40
2018-04-06T18:21:36.650Z,33.83
2018-04-06T18:24:08.069Z,20.30
2018-04-06T18:26:37.925Z,27.47
2018-04-06T18:29:07.840Z,27.43
2018-04-06T18:31:37.744Z,36.97
2018-04-06T18:34:07.384Z,44.50
2018-04-06T18:36:36.977Z,30.80
2018-04-06T18:39:07.591Z,20.00
2018-04-06T18:41:37.964Z,16.20
2018-04-06T18:44:08.465Z,20.53
2018-04-06T18:48:07.041Z,15.67
2018-04-06T18:50:37.172Z,25.73
2018-04-06T18:53:06.614Z,28.07
2018-04-06T18:55:36.383Z,28.97
2018-04-06T18:58:07.213Z,33.13
2018-04-06T19:00:37.242Z,34.43
2018-04-06T19:03:06.226Z,44.80
2018-04-06T19:05:35.526Z,39.70
2018-04-06T19:08:06.891Z,33.33
2018-04-06T19:10:36.464Z,24.77
2018-04-06T19:13:07.794Z,28.90
2018-04-06T19:15:37.534Z,33.17
2018-04-06T19:18:07.224Z,20.77
2018-04-06T19:20:36.515Z,28.77
2018-04-06T19:23:05.765Z,54.03
2018-04-06T19:25:35.953Z,43.57
2018-04-06T19:28:06.391Z,36.27
2018-04-06T19:30:36.050Z,31.50
2018-04-06T19:33:06.603Z,151.87
2018-04-06T19:35:36.537Z,45.27
2018-04-06T19:38:06.955Z,14.07
2018-04-06T19:40:37.347Z,18.60
2018-04-06T19:43:06.814Z,19.70
2018-04-06T19:45:35.719Z,15.90
2018-04-06T19:48:05.670Z,26.20
2018-04-06T19:50:34.824Z,23.80
2018-04-06T19:53:04.568Z,20.27
2018-04-06T19:55:34.700Z,21.13
2018-04-06T19:58:04.968Z,16.13
2018-04-06T20:00:34.366Z,13.27
2018-04-06T20:03:05.304Z,13.37
2018-04-06T20:05:35.418Z,12.03
2018-04-06T20:08:07.768Z,9.13
2018-04-06T20:10:37.901Z,12.50
2018-04-06T20:13:07.546Z,16.90
2018-04-06T20:15:38.171Z,12.17
2018-04-06T20:18:07.314Z,13.33
2018-04-06T20:20:37.211Z,12.40
2018-04-06T20:23:07.141Z,11.73
2018-04-06T20:25:36.871Z,20.27
2018-04-06T20:28:07.401Z,23.00
2018-04-06T20:30:36.926Z,18.37
2018-04-06T20:33:06.673Z,17.30
2018-04-06T20:35:37.219Z,15.47
2018-04-06T20:38:07.753Z,15.43
2018-04-06T20:40:37.760Z,15.70
2018-04-06T20:43:06.997Z,16.90
2018-04-06T20:45:36.808Z,17.50
2018-04-06T20:48:07.006Z,28.30
2018-04-06T20:50:36.642Z,28.87
2018-04-06T20:53:06.392Z,20.07
2018-04-06T20:55:36.937Z,22.33
2018-04-06T20:58:06.930Z,23.03
2018-04-06T21:00:36.689Z,21.90
2018-04-06T21:03:06.381Z,28.37
2018-04-06T21:05:35.571Z,24.83
2018-04-06T21:08:05.467Z,12.57
2018-04-06T21:10:35.714Z,22.13
2018-04-06T21:13:05.943Z,14.00
2018-04-06T21:15:35.585Z,24.40
2018-04-06T21:18:05.942Z,18.93
2018-04-06T21:20:35.654Z,17.47
2018-04-06T21:23:05.211Z,9.37
2018-04-06T21:25:35.175Z,10.63
2018-04-06T21:28:06.030Z,10.87
2018-04-06T21:30:35.614Z,12.97
2018-04-06T21:33:05.778Z,9.63
2018-04-06T21:35:35.661Z,7.40
2018-04-06T21:38:07.324Z,10.13
2018-04-06T21:40:38.080Z,18.70
2018-04-06T21:43:07.184Z,13.47
2018-04-06T21:45:36.788Z,12.87
2018-04-06T21:48:07.650Z,18.07
2018-04-06T21:50:37.648Z,13.90
2018-04-06T21:53:07.512Z,10.30
2018-04-06T21:55:37.880Z,11.53
2018-04-06T21:58:07.694Z,12.30
2018-04-06T22:00:37.528Z,9.87
2018-04-06T22:03:07.099Z,12.00
2018-04-06T22:05:36.981Z,10.27
2018-04-06T22:08:08.961Z,8.77
2018-04-06T22:10:38.614Z,8.33
2018-04-06T22:13:08.125Z,10.87
2018-04-06T22:15:38.447Z,8.30
2018-04-06T22:18:07.977Z,9.60
2018-04-06T22:20:37.757Z,15.20
2018-04-06T22:23:07.101Z,15.87
2018-04-06T22:25:36.819Z,11.30
2018-04-06T22:28:06.895Z,11.87
2018-04-06T22:30:37.896Z,7.50
2018-04-06T22:33:07.266Z,13.50
2018-04-06T22:35:36.879Z,15.90
2018-04-06T22:38:06.781Z,20.70
2018-04-06T22:40:36.255Z,14.30
2018-04-06T22:43:06.053Z,9.80
2018-04-06T22:45:35.450Z,13.30
2018-04-06T22:48:05.604Z,13.77
2018-04-06T22:50:35.747Z,13.07
2018-04-06T22:53:05.053Z,10.20
2018-04-06T22:55:34.527Z,8.93
2018-04-06T22:58:06.292Z,11.30
2018-04-06T23:00:35.561Z,10.27
2018-04-06T23:03:05.148Z,8.20
2018-04-06T23:05:34.382Z,11.17
2018-04-06T23:08:05.350Z,9.00
2018-04-06T23:10:37.318Z,8.17
2018-04-06T23:13:06.721Z,9.00
2018-04-06T23:15:36.604Z,12.13
2018-04-06T23:18:06.791Z,11.53
2018-04-06T23:20:36.720Z,7.53
2018-04-06T23:23:06.142Z,7.67
2018-04-06T23:25:36.043Z,11.10
2018-04-06T23:28:07.365Z,11.60
2018-04-06T23:30:36.769Z,10.77
2018-04-06T23:33:06.274Z,9.73
2018-04-06T23:35:35.475Z,10.70
2018-04-06T23:38:06.101Z,11.37
2018-04-06T23:40:35.325Z,16.20
2018-04-06T23:43:04.510Z,9.23
2018-04-06T23:45:33.489Z,12.90
2018-04-06T23:48:04.239Z,10.50
2018-04-06T23:50:33.253Z,12.80
2018-04-06T23:53:03.132Z,11.33
2018-04-06T23:55:32.082Z,9.37
2018-04-06T23:58:01.146Z,10.47
